eropot.net alexa rank chart, eropot.net alexa rank daily changes

eropot.net alexa rank chart, eropot.net alexa rank daily changes

eropot.net
Actual rank:
174 090

RANK HISTORY

Date Rank Diff
2018/01/17 174 090 +669
2018/01/16 173 421 +762
2018/01/15 172 659 +547
2018/01/14 172 112 -71
2018/01/13 172 183 +709
2018/01/12 171 474 +1 503
2018/01/11 169 971 +2 934
2018/01/10 167 037 +1 343
2018/01/09 165 694 +1 628
2018/01/08 164 066 -2 408
2018/01/07 166 474 +92
2018/01/06 166 382 +1 631
2018/01/05 164 751 +2 525
2018/01/04 162 226 +2 635
2018/01/03 159 591 -387
2018/01/02 159 978 -931
2018/01/01 160 909 -942
2017/12/31 161 851 -758
2017/12/30 162 609 +375
2017/12/29 162 234 +300
2017/12/28 161 934 -40
2017/12/27 161 974 +1 049
2017/12/26 160 925 -4 210
2017/12/25 165 135 +1 744
2017/12/24 163 391 -2 291
2017/12/23 165 682 -3 357
2017/12/22 169 039 -2 435
2017/12/21 171 474 +593
2017/12/20 170 881 -1 733
2017/12/19 172 614 -6
2017/12/18 172 620 -614
2017/12/17 173 234 -4 008
2017/12/16 177 242 -2 431
2017/12/15 179 673 -1 532
2017/12/14 181 205 +2 611
2017/12/13 178 594 -1 405
2017/12/12 179 999 +75
2017/12/11 179 924 -998
2017/12/10 180 922 +422
2017/12/09 180 500 -843
2017/12/08 181 343 -2 705
2017/12/07 184 048 +640
2017/12/06 183 408 -2 429
2017/12/05 185 837 -4 876
2017/12/04 190 713 -5 760
2017/12/03 196 473 -173
2017/12/02 196 646 +828
2017/12/01 195 818 +5 750
2017/11/30 190 068 +1 001
2017/11/29 189 067 -1 084
2017/11/28 190 151 -884
2017/11/27 191 035 -3 957
2017/11/26 194 992 +2 129
2017/11/25 192 863 -4 008
2017/11/24 196 871 +3 350
2017/11/23 193 521 +3 279
2017/11/22 190 242 +4 291
2017/11/21 185 951 -2 214
2017/11/20 188 165 +39
2017/11/19 188 126 +286
2017/11/18 187 840 -1 148
2017/11/17 188 988

WIDGET FOR YOUR SITE

DOMAINS WITH THE NEAREST RANK

Domain Rank
jmcacademy.edu.au 174 085
playindianporn.com 174 086
canidae.com 174 087
sgmw.com.cn 174 088
game24.co.kr 174 089
eropot.net 174 090
tvcresources.net 174 091
4day.info 174 092
landcforum.com 174 093
share-ex.com 174 094
mkset.ru 174 095

DOMAINS WITH THE NEAREST RANK BY TLD .net

Domain Rank
sonokinetic.net 174 026
hot-board.net 174 033
tousatu-mania.net 174 041
soicos.net 174 046
cleanmama.net 174 082
eropot.net 174 090
tvcresources.net 174 091
fuxion.net 174 107
antoniogenna.net 174 115
gulfeyes.net 174 189
aslibumiayu.net 174 213